Time;durP1;ratioP1;P1;durP2;ratioP2;P2;SDS_P1;SDS_P2;PMS_P1;PMS_P2;Temp;Humidity;BMP_temperature;BMP_pressure;BME280_temperature;BME280_humidity;BME280_pressure;Samples;Min_cycle;Max_cycle;Signal;HPM_P1;HPM_P2
2023/07/25 00:00:46;;;;;;;5.40;3.20;;;;;;;26.65;52.46;99908.59;108050;1284;22044;-70
2023/07/25 00:03:12;;;;;;;6.60;3.40;;;;;;;26.62;52.56;99900.39;108138;1287;21989;-69
2023/07/25 00:05:38;;;;;;;6.90;3.90;;;;;;;26.62;52.78;99897.15;108099;1284;21989;-60
2023/07/25 00:08:04;;;;;;;6.10;3.70;;;;;;;26.62;52.74;99898.06;108041;1277;21986;-70
2023/07/25 00:10:29;;;;;;;6.40;3.80;;;;;;;26.62;53.13;99903.15;108091;1284;22012;-70
2023/07/25 00:12:55;;;;;;;6.40;3.60;;;;;;;26.58;53.30;99905.23;108088;1284;22000;-70
2023/07/25 00:15:20;;;;;;;7.40;3.50;;;;;;;26.55;53.61;99906.20;108036;1287;21996;-60
2023/07/25 00:17:46;;;;;;;7.20;3.60;;;;;;;26.52;53.72;99903.74;108108;1289;21994;-69
2023/07/25 00:20:12;;;;;;;7.40;3.30;;;;;;;26.53;54.12;99904.98;108059;1277;22012;-60
2023/07/25 00:22:37;;;;;;;5.60;3.30;;;;;;;26.54;54.42;99907.76;108066;1287;21993;-70
2023/07/25 00:25:03;;;;;;;6.20;3.60;;;;;;;26.54;54.84;99910.64;108091;1288;21992;-61
2023/07/25 00:27:29;;;;;;;8.40;3.80;;;;;;;26.51;54.93;99908.22;108166;1278;22080;-61
2023/07/25 00:29:54;;;;;;;8.00;3.40;;;;;;;26.49;54.97;99908.58;108005;1288;21991;-70
2023/07/25 00:32:20;;;;;;;8.20;3.90;;;;;;;26.48;55.13;99912.56;108063;1286;21991;-60
2023/07/25 00:34:45;;;;;;;5.40;3.70;;;;;;;26.49;55.40;99915.55;108035;1287;21996;-70
2023/07/25 00:37:11;;;;;;;8.00;3.50;;;;;;;26.50;55.24;99912.80;108098;1284;21986;-69
2023/07/25 00:39:37;;;;;;;6.30;3.50;;;;;;;26.52;55.52;99914.55;108050;1287;21993;-61
2023/07/25 00:42:03;;;;;;;7.00;3.60;;;;;;;26.50;55.40;99910.60;108053;1284;22037;-70
2023/07/25 00:44:28;;;;;;;5.20;3.70;;;;;;;26.48;55.46;99906.63;108048;1288;21995;-61
2023/07/25 00:46:54;;;;;;;7.40;3.70;;;;;;;26.46;55.76;99905.91;108050;1284;21992;-60
2023/07/25 00:49:19;;;;;;;6.60;4.20;;;;;;;26.42;55.94;99907.39;107903;1283;22001;-60
2023/07/25 00:51:45;;;;;;;7.20;4.00;;;;;;;26.38;56.42;99903.16;108069;1284;21994;-61
2023/07/25 00:54:10;;;;;;;7.50;4.40;;;;;;;26.36;56.49;99906.27;108000;1288;22059;-61
2023/07/25 00:56:36;;;;;;;6.40;4.20;;;;;;;26.31;56.59;99908.27;107886;1284;22046;-70
2023/07/25 00:59:01;;;;;;;5.80;3.50;;;;;;;26.27;57.01;99907.35;107895;1284;22046;-70
2023/07/25 01:01:28;;;;;;;6.90;3.90;;;;;;;26.27;57.61;99905.19;108060;1287;22009;-61
2023/07/25 01:03:55;;;;;;;5.50;4.00;;;;;;;26.24;57.81;99901.13;108064;1288;21995;-60
2023/07/25 01:06:21;;;;;;;5.20;3.70;;;;;;;26.21;57.75;99894.42;108003;1287;21991;-60
2023/07/25 01:08:50;;;;;;;7.90;3.90;;;;;;;26.19;57.93;99899.77;108112;1284;21999;-70
2023/07/25 01:11:16;;;;;;;5.50;4.10;;;;;;;26.19;58.32;99904.15;108112;1284;21988;-60
2023/07/25 01:13:42;;;;;;;6.70;4.20;;;;;;;26.17;58.72;99905.91;108086;1281;21985;-62
2023/07/25 01:16:09;;;;;;;5.90;3.90;;;;;;;26.14;58.99;99907.42;107926;1284;21992;-61
2023/07/25 01:18:35;;;;;;;6.50;3.40;;;;;;;26.09;59.47;99911.23;108105;1284;21990;-60
2023/07/25 01:21:01;;;;;;;5.70;3.50;;;;;;;26.04;59.90;99912.67;107879;1287;21994;-60
2023/07/25 01:23:27;;;;;;;5.50;3.70;;;;;;;26.05;59.84;99915.84;107895;1287;21992;-60
2023/07/25 01:25:52;;;;;;;5.50;3.60;;;;;;;26.09;60.14;99919.27;107923;1281;22031;-60
2023/07/25 01:28:18;;;;;;;6.20;3.80;;;;;;;26.12;60.18;99916.17;108103;1284;21992;-60
2023/07/25 01:30:43;;;;;;;5.80;4.10;;;;;;;26.13;61.35;99908.73;108057;1287;21988;-70
2023/07/25 01:33:09;;;;;;;5.50;4.00;;;;;;;26.11;61.62;99909.79;108267;1283;22452;-70
2023/07/25 01:35:35;;;;;;;4.40;3.40;;;;;;;26.09;61.41;99905.27;108085;1284;22162;-60
2023/07/25 01:38:00;;;;;;;5.30;3.00;;;;;;;26.08;62.82;99901.91;108059;1287;22172;-61
2023/07/25 01:40:26;;;;;;;6.10;3.70;;;;;;;26.08;63.60;99903.16;108088;1284;22027;-70
2023/07/25 01:42:51;;;;;;;8.90;4.00;;;;;;;26.09;63.98;99901.70;108077;1284;21992;-60
2023/07/25 01:45:17;;;;;;;6.30;3.60;;;;;;;26.08;64.64;99899.02;108073;1284;21993;-60
2023/07/25 01:47:42;;;;;;;6.10;3.40;;;;;;;26.09;64.52;99895.70;108106;1288;21992;-61
2023/07/25 01:50:08;;;;;;;5.20;3.50;;;;;;;26.11;64.77;99894.32;108138;1277;21987;-60
2023/07/25 01:52:34;;;;;;;7.00;3.90;;;;;;;26.13;65.28;99889.12;108083;1284;21991;-70
2023/07/25 01:55:00;;;;;;;8.70;3.80;;;;;;;26.17;64.67;99890.25;108117;1287;22047;-69
2023/07/25 01:57:25;;;;;;;9.00;4.00;;;;;;;26.20;66.61;99888.94;108094;1277;21994;-67
2023/07/25 01:59:51;;;;;;;6.50;3.80;;;;;;;26.20;67.20;99900.30;108080;1287;21992;-69
2023/07/25 02:02:17;;;;;;;6.00;3.60;;;;;;;26.20;66.37;99902.59;108099;1277;21987;-61
2023/07/25 02:04:42;;;;;;;6.10;3.80;;;;;;;26.21;67.41;99907.14;108069;1284;23715;-70
2023/07/25 02:07:08;;;;;;;7.80;3.80;;;;;;;26.22;67.13;99910.88;108069;1284;21988;-60
2023/07/25 02:09:33;;;;;;;5.80;3.40;;;;;;;26.23;66.64;99911.88;108072;1277;22102;-60
2023/07/25 02:12:00;;;;;;;6.90;3.50;;;;;;;26.25;67.05;99911.28;108101;1280;22031;-69
2023/07/25 02:14:26;;;;;;;5.60;3.70;;;;;;;26.26;67.04;99915.16;108079;1287;21990;-60
2023/07/25 02:16:52;;;;;;;5.20;3.20;;;;;;;26.27;67.74;99926.06;108090;1277;21998;-60
2023/07/25 02:19:18;;;;;;;5.70;3.40;;;;;;;26.29;67.37;99927.52;108104;1278;22354;-60
2023/07/25 02:21:43;;;;;;;8.10;4.00;;;;;;;26.33;67.86;99928.23;108092;1288;21994;-70
2023/07/25 02:24:09;;;;;;;7.90;3.80;;;;;;;26.35;67.68;99926.82;108085;1277;21988;-60
2023/07/25 02:26:35;;;;;;;9.40;4.00;;;;;;;26.37;67.60;99924.52;108088;1284;21994;-70
2023/07/25 02:29:00;;;;;;;5.70;3.40;;;;;;;26.36;67.75;99922.42;108065;1288;22002;-69
2023/07/25 02:31:26;;;;;;;6.20;3.80;;;;;;;26.36;68.39;99922.48;108090;1284;21989;-70
2023/07/25 02:33:51;;;;;;;6.80;3.40;;;;;;;26.35;67.87;99919.83;108105;1277;22027;-70
2023/07/25 02:36:17;;;;;;;4.70;3.70;;;;;;;26.36;67.94;99923.33;108075;1283;21995;-60
2023/07/25 02:38:42;;;;;;;7.50;4.00;;;;;;;26.37;69.22;99922.54;108064;1284;21989;-58
2023/07/25 02:41:08;;;;;;;5.70;3.50;;;;;;;26.35;71.07;99922.89;108116;1284;21986;-59
2023/07/25 02:43:34;;;;;;;5.70;3.60;;;;;;;26.33;70.36;99920.89;108064;1287;21999;-61
2023/07/25 02:45:59;;;;;;;6.10;3.70;;;;;;;26.32;72.44;99916.69;107869;1284;22046;-69
2023/07/25 02:48:25;;;;;;;5.80;3.90;;;;;;;26.34;72.40;99916.14;108057;1284;21990;-69
2023/07/25 02:50:50;;;;;;;9.60;4.10;;;;;;;26.35;72.35;99913.47;108057;1288;21990;-68
2023/07/25 02:53:16;;;;;;;14.30;4.50;;;;;;;26.38;71.04;99906.78;108085;1284;23017;-69
2023/07/25 02:55:41;;;;;;;7.70;4.10;;;;;;;26.39;71.22;99906.14;108062;1284;21999;-59
2023/07/25 02:58:07;;;;;;;8.90;4.40;;;;;;;26.41;72.06;99904.05;108038;1284;21992;-69
2023/07/25 03:00:32;;;;;;;6.60;4.40;;;;;;;26.42;71.97;99901.73;108069;1278;22020;-68
2023/07/25 03:02:58;;;;;;;8.80;4.50;;;;;;;26.41;72.15;99896.96;108024;1287;22083;-59
2023/07/25 03:05:26;;;;;;;10.90;5.70;;;;;;;26.40;72.07;99891.48;108037;1286;21993;-69
2023/07/25 03:07:52;;;;;;;6.00;4.40;;;;;;;26.41;71.78;99888.18;108079;1288;21992;-68
2023/07/25 03:10:18;;;;;;;7.80;4.30;;;;;;;26.51;71.64;99886.55;108073;1285;21989;-69
2023/07/25 03:12:44;;;;;;;5.50;4.10;;;;;;;26.59;71.69;99883.73;108162;1289;21996;-68
2023/07/25 03:15:09;;;;;;;6.40;4.10;;;;;;;26.65;72.86;99882.38;108093;1284;22882;-68
2023/07/25 03:17:35;;;;;;;10.50;4.80;;;;;;;26.70;72.96;99881.55;108069;1288;21956;-68
2023/07/25 03:20:02;;;;;;;7.70;4.50;;;;;;;26.73;73.29;99878.71;108138;1288;21997;-61
2023/07/25 03:22:28;;;;;;;8.60;4.90;;;;;;;26.75;72.83;99868.13;108046;1287;22108;-68
2023/07/25 03:24:53;;;;;;;8.50;4.70;;;;;;;26.79;72.29;99865.27;108098;1283;21987;-59
2023/07/25 03:27:19;;;;;;;7.80;5.00;;;;;;;26.83;72.82;99865.31;108145;1288;21994;-68
2023/07/25 03:29:44;;;;;;;7.90;4.20;;;;;;;26.87;72.57;99869.66;108094;1284;21991;-68
2023/07/25 03:32:10;;;;;;;7.90;4.50;;;;;;;26.90;73.95;99867.58;107982;1288;21997;-68
2023/07/25 03:34:36;;;;;;;10.10;4.80;;;;;;;26.94;75.45;99861.84;108113;1284;21992;-59
2023/07/25 03:37:01;;;;;;;6.50;4.10;;;;;;;26.98;76.75;99862.04;108081;1287;21990;-59
2023/07/25 03:39:27;;;;;;;10.00;4.50;;;;;;;27.00;76.53;99859.61;108070;1285;22358;-68
2023/07/25 03:41:53;;;;;;;9.40;4.60;;;;;;;27.05;77.00;99863.55;108083;1287;22228;-68
2023/07/25 03:44:20;;;;;;;9.10;4.50;;;;;;;27.11;76.80;99865.66;108083;1284;21990;-59
2023/07/25 03:46:46;;;;;;;7.60;4.20;;;;;;;27.17;78.12;99863.92;108076;1284;22051;-60
2023/07/25 03:49:11;;;;;;;6.80;4.50;;;;;;;27.23;79.23;99865.02;108156;1287;21992;-59
2023/07/25 03:51:37;;;;;;;10.30;4.70;;;;;;;27.27;80.38;99861.90;108097;1284;22027;-66
2023/07/25 03:54:04;;;;;;;6.40;4.40;;;;;;;27.35;78.29;99857.10;108245;1277;22028;-59
2023/07/25 03:56:30;;;;;;;10.30;4.70;;;;;;;27.42;80.13;99856.91;108264;1288;21988;-67
2023/07/25 03:58:55;;;;;;;7.40;4.20;;;;;;;27.50;78.68;99856.46;108160;1284;21990;-68
2023/07/25 04:01:21;;;;;;;9.70;4.20;;;;;;;27.58;78.56;99860.74;108174;1289;23612;-59
2023/07/25 04:03:46;;;;;;;6.60;4.40;;;;;;;27.65;79.82;99858.46;108064;1287;21992;-67
2023/07/25 04:06:12;;;;;;;8.70;4.60;;;;;;;27.72;80.29;99849.69;108215;1284;22454;-59
2023/07/25 04:08:38;;;;;;;8.20;4.10;;;;;;;27.81;80.06;99846.56;108067;1288;22022;-68
2023/07/25 04:11:03;;;;;;;7.20;4.30;;;;;;;27.90;79.67;99851.30;108119;1284;21990;-66
2023/07/25 04:13:29;;;;;;;6.90;4.30;;;;;;;27.96;81.47;99850.95;108156;1284;21997;-61
2023/07/25 04:15:54;;;;;;;7.80;4.90;;;;;;;28.01;81.76;99853.51;108111;1284;21960;-59
2023/07/25 04:18:20;;;;;;;5.80;4.20;;;;;;;28.10;81.05;99860.83;108118;1284;21992;-59
2023/07/25 04:20:46;;;;;;;9.20;4.60;;;;;;;28.16;82.93;99859.90;108143;1284;22678;-68
2023/07/25 04:23:11;;;;;;;7.00;4.10;;;;;;;28.23;81.64;99855.66;108126;1289;21995;-68
2023/07/25 04:25:37;;;;;;;7.50;4.40;;;;;;;28.33;81.19;99853.23;108179;1289;22002;-59
2023/07/25 04:28:03;;;;;;;10.50;4.20;;;;;;;28.42;81.46;99849.21;108027;1284;22016;-59
2023/07/25 04:30:28;;;;;;;6.30;4.10;;;;;;;28.51;81.24;99846.47;108088;1284;21992;-68
2023/07/25 04:32:54;;;;;;;8.50;4.40;;;;;;;28.61;80.57;99843.16;108116;1287;21990;-61
2023/07/25 04:35:20;;;;;;;7.00;4.30;;;;;;;28.71;80.52;99842.59;108146;1284;21992;-60
2023/07/25 04:37:45;;;;;;;9.40;4.70;;;;;;;28.78;81.15;99841.90;108140;1284;21990;-60
2023/07/25 04:40:11;;;;;;;7.30;4.70;;;;;;;28.88;80.06;99846.16;108092;1287;22004;-58
2023/07/25 04:42:37;;;;;;;7.20;4.30;;;;;;;28.97;80.33;99851.27;108138;1284;21995;-59
2023/07/25 04:45:04;;;;;;;7.60;4.40;;;;;;;29.04;81.32;99847.17;108084;1283;21990;-60
2023/07/25 04:47:29;;;;;;;8.10;4.40;;;;;;;29.15;82.03;99843.16;108082;1284;21998;-67
2023/07/25 04:49:55;;;;;;;9.80;4.30;;;;;;;29.25;81.92;99839.31;108104;1288;22000;-67
2023/07/25 04:52:21;;;;;;;9.30;4.30;;;;;;;29.36;80.82;99840.05;108073;1284;22083;-67
2023/07/25 04:54:46;;;;;;;6.60;4.00;;;;;;;29.47;80.14;99843.72;108079;1285;22028;-67
2023/07/25 04:57:12;;;;;;;8.30;4.50;;;;;;;29.56;80.48;99847.52;108094;1284;21986;-67
2023/07/25 04:59:37;;;;;;;6.80;4.20;;;;;;;29.65;80.05;99850.02;108093;1288;21995;-67
2023/07/25 05:02:03;;;;;;;8.90;4.80;;;;;;;29.69;80.19;99850.31;108089;1284;21989;-60
2023/07/25 05:04:29;;;;;;;6.50;4.30;;;;;;;29.79;79.01;99848.70;108112;1288;21997;-59
2023/07/25 05:06:55;;;;;;;9.80;4.00;;;;;;;29.90;78.48;99843.67;108080;1284;21993;-59
2023/07/25 05:09:20;;;;;;;7.50;4.00;;;;;;;30.01;78.29;99845.70;108061;1288;21986;-67
2023/07/25 05:11:51;;;;;;;5.70;4.00;;;;;;;30.12;77.76;99845.82;108084;1288;21993;-67
2023/07/25 05:14:17;;;;;;;;;;;;;;;30.22;77.47;99846.70;108068;1284;21968;-69
2023/07/25 05:16:42;;;;;;;7.10;4.20;;;;;;;30.35;76.73;99846.84;108120;1288;21998;-60
2023/07/25 05:19:08;;;;;;;6.20;3.90;;;;;;;30.47;76.16;99849.25;108033;1288;21995;-67
2023/07/25 05:21:34;;;;;;;6.20;3.50;;;;;;;30.56;75.28;99851.72;108053;1288;23484;-60
2023/07/25 05:23:59;;;;;;;5.80;4.00;;;;;;;30.64;75.23;99847.13;108069;1288;21989;-59
2023/07/25 05:26:25;;;;;;;8.00;3.90;;;;;;;30.75;74.77;99846.17;108079;1284;21990;-61
2023/07/25 05:28:50;;;;;;;8.80;3.70;;;;;;;30.89;74.50;99841.38;108045;1284;22455;-67
2023/07/25 05:31:16;;;;;;;7.40;4.10;;;;;;;31.02;74.04;99838.98;108059;1287;22456;-60
2023/07/25 05:33:41;;;;;;;8.40;3.80;;;;;;;31.13;73.75;99834.50;108073;1285;21998;-60
2023/07/25 05:36:07;;;;;;;7.40;3.90;;;;;;;31.29;73.04;99840.63;108081;1284;22046;-67
2023/07/25 05:38:33;;;;;;;6.20;3.60;;;;;;;31.43;72.25;99842.01;108076;1277;22096;-60
2023/07/25 05:40:58;;;;;;;7.70;3.80;;;;;;;31.55;71.91;99837.46;108123;1285;21990;-60
2023/07/25 05:43:24;;;;;;;9.10;3.80;;;;;;;31.74;71.89;99837.79;108216;1287;24051;-60
2023/07/25 05:45:50;;;;;;;8.10;4.50;;;;;;;31.91;71.33;99838.60;108048;1288;21995;-68
2023/07/25 05:48:16;;;;;;;10.50;4.10;;;;;;;32.03;70.14;99833.04;108059;1284;21988;-68
2023/07/25 05:50:41;;;;;;;8.30;4.20;;;;;;;32.18;69.44;99817.88;107939;1278;22027;-60
2023/07/25 05:53:07;;;;;;;5.90;3.90;;;;;;;32.28;68.98;99807.75;108034;1288;22026;-68
2023/07/25 05:55:32;;;;;;;6.60;4.30;;;;;;;32.39;68.53;99808.45;108051;1284;21989;-60
2023/07/25 05:57:58;;;;;;;5.10;3.10;;;;;;;32.50;67.78;99814.73;108050;1288;21996;-60
2023/07/25 06:00:23;;;;;;;5.50;3.70;;;;;;;32.61;66.58;99813.38;108094;1288;21997;-60
2023/07/25 06:02:49;;;;;;;7.50;3.50;;;;;;;32.70;65.93;99817.11;108083;1277;22011;-59
2023/07/25 06:05:15;;;;;;;8.20;4.20;;;;;;;32.82;65.61;99820.61;108068;1287;22017;-60
2023/07/25 06:07:40;;;;;;;9.90;3.90;;;;;;;32.95;65.35;99818.16;108048;1289;22462;-60
2023/07/25 06:10:07;;;;;;;8.50;4.30;;;;;;;33.11;65.43;99813.65;108077;1289;21994;-61
2023/07/25 06:12:32;;;;;;;7.20;4.30;;;;;;;33.24;64.17;99812.10;108099;1284;21987;-66
2023/07/25 06:14:58;;;;;;;8.50;3.80;;;;;;;33.29;62.19;99811.89;108269;1284;21997;-69
2023/07/25 06:17:24;;;;;;;5.60;3.70;;;;;;;33.37;62.48;99813.87;108133;1284;22000;-70
2023/07/25 06:19:49;;;;;;;6.50;4.30;;;;;;;33.44;61.70;99809.80;108160;1284;22006;-61
2023/07/25 06:22:15;;;;;;;6.80;4.00;;;;;;;33.52;60.89;99805.06;108065;1288;21991;-69
2023/07/25 06:24:41;;;;;;;19.40;4.90;;;;;;;33.62;60.33;99803.47;107939;1284;21995;-62
2023/07/25 06:27:07;;;;;;;7.30;4.20;;;;;;;33.69;59.41;99797.76;108127;1277;21991;-70
2023/07/25 06:29:33;;;;;;;5.60;4.40;;;;;;;33.72;58.56;99794.70;108087;1284;21995;-61
2023/07/25 06:31:58;;;;;;;7.30;3.80;;;;;;;33.83;59.47;99794.62;108064;1289;22003;-70
2023/07/25 06:34:24;;;;;;;5.60;3.60;;;;;;;33.98;58.59;99794.36;108151;1288;22003;-61
2023/07/25 06:36:49;;;;;;;10.10;4.40;;;;;;;34.04;56.37;99792.46;108218;1278;21995;-62
2023/07/25 06:39:15;;;;;;;7.90;4.30;;;;;;;34.12;55.81;99793.48;108175;1284;21999;-61
2023/07/25 06:41:40;;;;;;;7.70;4.30;;;;;;;34.23;56.37;99791.36;108227;1283;21995;-71
2023/07/25 06:44:06;;;;;;;13.40;4.40;;;;;;;34.31;55.07;99787.41;108248;1288;21992;-72
2023/07/25 06:46:34;;;;;;;10.50;4.00;;;;;;;34.45;54.69;99781.35;108118;1289;22007;-69
2023/07/25 06:48:59;;;;;;;8.80;4.00;;;;;;;34.61;54.52;99783.63;108094;1284;23051;-61
2023/07/25 06:51:25;;;;;;;7.00;3.60;;;;;;;34.71;54.12;99781.02;108071;1287;22077;-61
2023/07/25 06:53:51;;;;;;;5.50;3.90;;;;;;;34.88;54.93;99778.73;108040;1277;22006;-61
2023/07/25 06:56:17;;;;;;;6.60;4.80;;;;;;;35.04;54.16;99772.11;108097;1284;21992;-62
2023/07/25 06:58:42;;;;;;;6.40;4.30;;;;;;;35.19;54.10;99772.27;108045;1287;21993;-70
2023/07/25 07:01:08;;;;;;;7.80;3.80;;;;;;;35.31;53.75;99769.39;107899;1289;200522;-62
2023/07/25 07:03:34;;;;;;;7.70;4.10;;;;;;;35.43;52.80;99766.60;108080;1289;21989;-70
2023/07/25 07:05:59;;;;;;;6.50;3.70;;;;;;;35.65;52.52;99767.73;108070;1278;21997;-61
2023/07/25 07:08:25;;;;;;;5.60;4.10;;;;;;;35.78;50.43;99770.22;108053;1279;21984;-69
2023/07/25 07:10:52;;;;;;;9.50;4.30;;;;;;;35.82;49.10;99770.38;108060;1289;22163;-69
2023/07/25 07:13:19;;;;;;;10.20;4.90;;;;;;;35.89;48.24;99760.54;108075;1287;21987;-60
2023/07/25 07:15:48;;;;;;;9.20;4.70;;;;;;;36.02;48.25;99757.89;108112;1278;22004;-60
2023/07/25 07:18:14;;;;;;;7.30;3.90;;;;;;;36.12;48.06;99757.84;108045;1284;21994;-60
2023/07/25 07:20:41;;;;;;;12.10;4.70;;;;;;;36.25;48.19;99757.44;108080;1289;21996;-68
2023/07/25 07:23:06;;;;;;;11.00;5.20;;;;;;;36.30;47.02;99755.06;108031;1281;21991;-69
2023/07/25 07:25:36;;;;;;;5.60;4.30;;;;;;;36.40;46.51;99751.23;108052;1284;21995;-61
2023/07/25 07:28:02;;;;;;;6.70;4.10;;;;;;;36.47;45.60;99750.47;108073;1288;21992;-61
2023/07/25 07:30:28;;;;;;;7.90;4.80;;;;;;;36.47;45.27;99750.91;108042;1289;21990;-69
2023/07/25 07:32:55;;;;;;;10.90;5.50;;;;;;;36.57;46.51;99745.59;107946;1289;22007;-70
2023/07/25 07:35:21;;;;;;;10.70;4.90;;;;;;;36.72;44.77;99751.59;108090;1288;22002;-60
2023/07/25 07:37:46;;;;;;;9.80;5.00;;;;;;;36.80;43.77;99751.27;108027;1283;22455;-69
2023/07/25 07:40:12;;;;;;;6.30;4.40;;;;;;;36.90;44.37;99750.70;108066;1284;21989;-61
2023/07/25 07:42:38;;;;;;;12.20;4.60;;;;;;;37.00;44.43;99750.25;108047;1284;21990;-69
2023/07/25 07:45:04;;;;;;;6.10;4.20;;;;;;;37.14;44.92;99739.98;108043;1280;23213;-70
2023/07/25 07:47:31;;;;;;;9.40;4.40;;;;;;;37.39;44.35;99740.75;108086;1289;21980;-70
2023/07/25 07:49:57;;;;;;;5.80;4.00;;;;;;;37.55;43.41;99737.88;108078;1284;21994;-71
2023/07/25 07:52:23;;;;;;;5.80;4.20;;;;;;;37.59;42.93;99734.05;108071;1285;21991;-72
2023/07/25 07:54:48;;;;;;;7.90;4.70;;;;;;;37.64;42.89;99730.28;108083;1289;21996;-70
2023/07/25 07:57:14;;;;;;;7.20;4.60;;;;;;;37.72;42.40;99725.29;108117;1288;21993;-62
2023/07/25 07:59:42;;;;;;;7.50;4.10;;;;;;;37.84;41.91;99726.48;108080;1287;21997;-62
2023/07/25 08:02:08;;;;;;;7.30;4.30;;;;;;;37.87;41.46;99722.22;108048;1284;21989;-62
2023/07/25 08:04:33;;;;;;;6.00;4.10;;;;;;;37.95;41.76;99722.52;108081;1289;21989;-71
2023/07/25 08:06:59;;;;;;;6.30;4.30;;;;;;;38.07;41.31;99729.13;108057;1284;21996;-62
2023/07/25 08:09:24;;;;;;;8.10;4.20;;;;;;;38.10;39.59;99731.60;108081;1288;24044;-62
2023/07/25 08:11:50;;;;;;;10.50;4.80;;;;;;;38.18;40.68;99735.20;108263;1288;21998;-70
2023/07/25 08:14:15;;;;;;;8.10;4.50;;;;;;;38.30;40.63;99733.44;108013;1282;22021;-65
2023/07/25 08:16:41;;;;;;;10.90;5.10;;;;;;;38.36;38.89;99738.45;107995;1284;22166;-63
2023/07/25 08:19:07;;;;;;;7.90;5.30;;;;;;;38.42;38.68;99745.08;108126;1287;21987;-62
2023/07/25 08:21:32;;;;;;;6.90;4.30;;;;;;;38.46;38.61;99749.25;108085;1288;21991;-69
2023/07/25 08:23:58;;;;;;;7.90;4.80;;;;;;;38.47;38.65;99755.54;108086;1278;22012;-60
2023/07/25 08:26:24;;;;;;;7.70;4.60;;;;;;;38.48;38.93;99756.90;108116;1288;22001;-70
2023/07/25 08:28:49;;;;;;;7.80;4.50;;;;;;;38.46;38.74;99757.69;108106;1288;21998;-70
2023/07/25 08:31:15;;;;;;;8.60;4.50;;;;;;;38.55;38.87;99753.44;108097;1288;22039;-62
2023/07/25 08:33:42;;;;;;;14.00;5.20;;;;;;;38.63;38.74;99756.33;108097;1287;24394;-69
2023/07/25 08:36:08;;;;;;;8.90;4.40;;;;;;;38.64;39.04;99760.71;108109;1278;21980;-69
2023/07/25 08:38:34;;;;;;;8.50;4.30;;;;;;;38.64;39.33;99756.43;108075;1285;22029;-62
2023/07/25 08:41:05;;;;;;;8.20;4.20;;;;;;;38.67;38.77;99747.23;108074;1284;22046;-62
2023/07/25 08:43:35;;;;;;;17.40;4.80;;;;;;;38.77;39.23;99740.21;108116;1288;21989;-62
2023/07/25 08:46:01;;;;;;;;;;;;;;;38.95;39.64;99745.62;108068;1284;21976;-62
2023/07/25 08:48:26;;;;;;;11.40;4.40;;;;;;;39.12;39.14;99741.45;107995;1284;22000;-70
2023/07/25 08:50:52;;;;;;;9.00;4.10;;;;;;;39.25;38.32;99742.04;107794;1285;22000;-69
2023/07/25 08:53:18;;;;;;;7.00;4.50;;;;;;;39.32;38.34;99737.89;108010;1286;21986;-62
2023/07/25 08:55:44;;;;;;;11.60;4.60;;;;;;;39.36;37.26;99738.30;107854;1288;22004;-70
2023/07/25 08:58:09;;;;;;;8.80;4.60;;;;;;;39.33;37.06;99735.22;107839;1288;21993;-63
2023/07/25 09:00:35;;;;;;;7.20;4.40;;;;;;;39.28;36.70;99734.59;107818;1288;21989;-63
2023/07/25 09:03:00;;;;;;;10.50;4.60;;;;;;;39.27;37.70;99735.87;108124;1287;21997;-70
2023/07/25 09:05:27;;;;;;;9.00;4.40;;;;;;;39.30;37.27;99734.46;108117;1284;21996;-70
2023/07/25 09:07:53;;;;;;;11.20;4.80;;;;;;;39.45;37.88;99731.18;107993;1288;21997;-64
2023/07/25 09:10:18;;;;;;;8.10;4.40;;;;;;;39.58;37.78;99729.92;108136;1288;21998;-70
2023/07/25 09:12:44;;;;;;;9.20;4.80;;;;;;;39.66;36.74;99728.14;107977;1289;22465;-62
2023/07/25 09:15:10;;;;;;;14.60;4.50;;;;;;;39.78;35.97;99726.42;108133;1288;21995;-63
2023/07/25 09:17:36;;;;;;;9.70;4.60;;;;;;;39.85;35.82;99725.34;108013;1284;22012;-63
2023/07/25 09:20:01;;;;;;;9.30;5.00;;;;;;;39.81;34.65;99725.25;108091;1279;21977;-64
2023/07/25 09:22:29;;;;;;;7.50;4.40;;;;;;;39.66;34.48;99723.70;107984;1287;22021;-71
2023/07/25 09:24:54;;;;;;;7.40;4.70;;;;;;;39.64;34.43;99722.58;108126;1288;22026;-60
2023/07/25 09:27:20;;;;;;;9.60;4.40;;;;;;;39.67;35.39;99713.58;108120;1277;22107;-60
2023/07/25 09:29:49;;;;;;;7.70;4.10;;;;;;;39.91;36.19;99714.90;108063;1284;22029;-67
2023/07/25 09:32:25;;;;;;;7.00;3.60;;;;;;;40.01;36.02;99712.75;108082;1288;22454;-60
2023/07/25 09:34:57;;;;;;;7.60;4.80;;;;;;;40.00;34.53;99709.24;108118;1288;22029;-68
2023/07/25 09:37:23;;;;;;;8.90;4.70;;;;;;;40.03;34.00;99706.80;108073;1287;22108;-68
2023/07/25 09:39:49;;;;;;;11.00;4.70;;;;;;;40.13;34.10;99704.95;108072;1289;23750;-68
2023/07/25 09:42:14;;;;;;;8.90;4.80;;;;;;;40.20;34.52;99695.29;108037;1284;21997;-68
2023/07/25 09:44:51;;;;;;;9.20;4.40;;;;;;;40.29;34.61;99694.98;108093;1284;21990;-68
2023/07/25 09:47:27;;;;;;;7.20;4.40;;;;;;;40.45;34.26;99684.53;108029;1288;21992;-69
2023/07/25 09:49:54;;;;;;;10.40;5.40;;;;;;;40.51;33.62;99685.09;108047;1288;21992;-62
2023/07/25 09:52:21;;;;;;;9.40;4.90;;;;;;;40.58;33.61;99680.04;108048;1287;21990;-62
2023/07/25 09:54:46;;;;;;;8.60;4.50;;;;;;;40.73;34.17;99668.39;108082;1289;23204;-69
2023/07/25 09:57:12;;;;;;;6.50;4.40;;;;;;;40.73;33.88;99659.21;108037;1284;22620;-62
2023/07/25 09:59:38;;;;;;;8.20;4.90;;;;;;;40.70;34.00;99652.86;108027;1277;22109;-69
2023/07/25 10:02:04;;;;;;;10.90;5.20;;;;;;;40.69;34.19;99657.06;108053;1287;22041;-68
2023/07/25 10:04:30;;;;;;;12.60;4.70;;;;;;;40.75;34.20;99652.27;108092;1288;22000;-70
2023/07/25 10:06:57;;;;;;;9.40;5.30;;;;;;;40.81;33.85;99643.91;108087;1288;21999;-62
2023/07/25 10:09:24;;;;;;;12.00;5.10;;;;;;;40.74;33.58;99634.98;108071;1284;21992;-62
2023/07/25 10:11:50;;;;;;;7.90;5.30;;;;;;;40.73;34.13;99623.75;108040;1288;22300;-68
2023/07/25 10:14:16;;;;;;;12.40;5.50;;;;;;;40.86;34.04;99617.02;107927;1288;21988;-61
2023/07/25 10:16:41;;;;;;;13.70;5.80;;;;;;;40.87;33.79;99613.29;108046;1284;22027;-61
2023/07/25 10:19:07;;;;;;;10.10;5.50;;;;;;;40.81;33.44;99606.36;108020;1284;21995;-61
2023/07/25 10:21:49;;;;;;;10.10;5.20;;;;;;;40.82;33.86;99605.29;108044;1288;21996;-68
2023/07/25 10:24:15;;;;;;;9.10;5.50;;;;;;;40.85;33.75;99595.21;108049;1278;22031;-61
2023/07/25 10:26:54;;;;;;;9.40;5.60;;;;;;;40.90;33.68;99588.21;108127;1288;21995;-62
2023/07/25 10:29:41;;;;;;;10.30;5.70;;;;;;;40.98;34.10;99587.14;108107;1288;21998;-67
2023/07/25 10:32:08;;;;;;;10.70;5.10;;;;;;;41.05;33.88;99577.37;108199;1288;21993;-61
2023/07/25 10:34:59;;;;;;;9.30;5.10;;;;;;;41.10;33.39;99574.97;108145;1287;22009;-68
2023/07/25 10:37:27;;;;;;;15.00;5.00;;;;;;;41.06;32.95;99575.50;108074;1283;22193;-61
2023/07/25 10:40:14;;;;;;;10.60;5.40;;;;;;;41.00;32.88;99577.75;108208;1288;22180;-68
2023/07/25 10:42:47;;;;;;;9.60;5.40;;;;;;;40.94;32.80;99570.06;108130;1288;22010;-68
2023/07/25 10:45:28;;;;;;;8.80;5.10;;;;;;;40.91;33.00;99568.04;108215;1283;21990;-61
2023/07/25 10:47:59;;;;;;;9.90;5.00;;;;;;;40.89;32.62;99561.10;108133;1288;22155;-63
2023/07/25 10:50:27;;;;;;;10.30;5.50;;;;;;;40.95;32.51;99544.73;108135;1289;21977;-61
2023/07/25 10:52:53;;;;;;;12.90;6.40;;;;;;;41.03;32.56;99540.02;108098;1288;21993;-67
2023/07/25 10:55:19;;;;;;;11.00;5.90;;;;;;;41.07;32.11;99533.70;108089;1288;21995;-61
2023/07/25 10:58:11;;;;;;;8.60;5.90;;;;;;;41.14;32.26;99526.16;108155;1278;21995;-61
2023/07/25 11:00:36;;;;;;;11.40;5.70;;;;;;;41.29;31.48;99520.79;108114;1288;21995;-67
2023/07/25 11:03:34;;;;;;;9.90;5.60;;;;;;;41.34;31.59;99509.08;108089;1287;22142;-62
2023/07/25 11:06:06;;;;;;;12.60;6.80;;;;;;;41.51;31.91;99494.93;108077;1288;21990;-61
2023/07/25 11:08:32;;;;;;;9.80;6.60;;;;;;;41.69;31.65;99497.85;108068;1284;21991;-69
2023/07/25 11:11:09;;;;;;;12.00;6.50;;;;;;;41.79;31.40;99507.52;108076;1285;22000;-61
2023/07/25 11:13:36;;;;;;;15.90;8.60;;;;;;;41.91;31.78;99511.80;108092;1288;23718;-62
2023/07/25 11:16:02;;;;;;;11.00;7.10;;;;;;;42.06;31.31;99513.18;108064;1288;21992;-68
2023/07/25 11:18:28;;;;;;;13.10;7.10;;;;;;;41.99;30.89;99510.73;107972;1288;21998;-68
2023/07/25 11:21:01;;;;;;;9.40;6.10;;;;;;;41.69;31.36;99510.93;108049;1289;21995;-67